Time;durP1;ratioP1;P1;durP2;ratioP2;P2;SDS_P1;SDS_P2;PMS_P1;PMS_P2;Temp;Humidity;BMP_temperature;BMP_pressure;BME280_temperature;BME280_humidity;BME280_pressure;Samples;Min_cycle;Max_cycle;Signal;HPM_P1;HPM_P2
2023/11/10 00:02:23;;;;;;;7.33;6.63;;;;;;;8.05;74.21;95066.31;5010549;28;20161;-69
2023/11/10 00:04:49;;;;;;;14.80;7.77;;;;;;;7.95;74.20;95065.13;5009764;28;20180;-70
2023/11/10 00:07:19;;;;;;;10.30;6.53;;;;;;;7.99;73.73;95055.34;5009944;28;20179;-69
2023/11/10 00:09:45;;;;;;;9.80;7.47;;;;;;;7.96;73.86;95061.59;5009283;28;20961;-69
2023/11/10 00:12:12;;;;;;;8.30;7.43;;;;;;;7.91;74.84;95058.38;5009044;28;20483;-68
2023/11/10 00:14:39;;;;;;;7.27;5.87;;;;;;;7.98;73.86;95061.50;5008152;28;20423;-71
2023/11/10 00:17:09;;;;;;;7.90;6.30;;;;;;;7.95;74.42;95059.06;5008034;28;20462;-68
2023/11/10 00:19:36;;;;;;;8.00;7.20;;;;;;;7.94;74.83;95049.53;5007769;28;20459;-69
2023/11/10 00:22:03;;;;;;;13.63;9.83;;;;;;;7.89;74.34;95049.78;5008049;28;20469;-69
2023/11/10 00:24:28;;;;;;;7.90;7.10;;;;;;;7.93;74.09;95045.22;5007698;28;20403;-68
2023/11/10 00:26:54;;;;;;;8.60;7.30;;;;;;;7.95;74.40;95053.81;5007585;28;20400;-67
2023/11/10 00:29:19;;;;;;;7.13;6.40;;;;;;;7.91;74.01;95045.31;5007763;28;20202;-68
2023/11/10 00:31:45;;;;;;;8.13;7.10;;;;;;;7.91;74.72;95049.69;5007688;28;20830;-69
2023/11/10 00:34:11;;;;;;;10.23;8.00;;;;;;;7.90;73.84;95046.25;5025604;28;20760;-69
2023/11/10 00:36:36;;;;;;;8.80;8.00;;;;;;;7.96;74.09;95056.38;5027136;28;20706;-68
2023/11/10 00:39:02;;;;;;;10.73;7.23;;;;;;;7.98;73.65;95045.81;5027289;28;20287;-69
2023/11/10 00:41:27;;;;;;;8.73;6.90;;;;;;;7.97;73.96;95049.38;5027296;28;20535;-71
2023/11/10 00:43:53;;;;;;;10.33;6.83;;;;;;;7.95;73.68;95054.66;5027393;28;20410;-71
2023/11/10 00:46:18;;;;;;;7.97;6.17;;;;;;;7.96;73.57;95045.06;5027143;28;20168;-70
2023/11/10 00:48:44;;;;;;;8.90;7.17;;;;;;;7.91;74.08;95039.25;5027445;28;20207;-71
2023/11/10 00:51:09;;;;;;;9.30;6.10;;;;;;;7.90;74.69;95034.97;5027280;28;20171;-69
2023/11/10 00:53:35;;;;;;;7.93;7.13;;;;;;;7.88;73.71;95028.97;5027378;28;20175;-70
2023/11/10 00:56:00;;;;;;;7.83;7.03;;;;;;;7.90;73.59;95024.50;5027075;28;20171;-68
2023/11/10 00:58:25;;;;;;;9.60;7.33;;;;;;;7.86;73.77;95029.06;5027066;28;20593;-67
2023/11/10 01:00:51;;;;;;;7.07;6.37;;;;;;;7.79;74.57;95019.88;5027002;28;20198;-70
2023/11/10 01:03:16;;;;;;;8.63;6.70;;;;;;;7.81;74.87;95018.03;5027065;28;20199;-69
2023/11/10 01:05:45;;;;;;;8.00;7.03;;;;;;;7.90;73.47;95011.44;5026213;28;20266;-70
2023/11/10 01:08:10;;;;;;;9.27;7.47;;;;;;;7.80;74.91;95009.34;5027034;28;20159;-70
2023/11/10 01:10:36;;;;;;;8.73;6.63;;;;;;;7.84;73.88;95018.72;5026901;28;20960;-68
2023/11/10 01:13:03;;;;;;;7.10;6.40;;;;;;;7.78;74.39;95023.41;5025390;28;20278;-70
2023/11/10 01:15:29;;;;;;;8.73;6.97;;;;;;;7.64;75.09;95024.16;5026240;28;20183;-69
2023/11/10 01:17:54;;;;;;;8.50;6.77;;;;;;;7.86;74.16;95016.00;5026931;28;20479;-68
2023/11/10 01:20:20;;;;;;;9.40;6.97;;;;;;;7.89;75.05;95012.38;5027155;28;20188;-70
2023/11/10 01:22:45;;;;;;;13.60;7.20;;;;;;;7.96;74.37;95018.94;5027101;28;20186;-70
2023/11/10 01:25:13;;;;;;;7.30;6.43;;;;;;;8.00;74.77;95023.91;5026517;28;20710;-70
2023/11/10 01:27:41;;;;;;;14.33;7.10;;;;;;;7.94;74.64;95011.19;5026568;28;20171;-68
2023/11/10 01:30:07;;;;;;;12.17;7.83;;;;;;;8.04;74.22;95001.91;5026610;28;20449;-70
2023/11/10 01:32:32;;;;;;;8.30;7.00;;;;;;;7.97;73.95;95010.19;5022324;28;20886;-70
2023/11/10 01:34:58;;;;;;;11.23;7.97;;;;;;;7.90;74.56;95009.69;5006527;28;20411;-69
2023/11/10 01:37:23;;;;;;;12.10;7.70;;;;;;;7.93;73.98;95011.28;5006959;28;20230;-70
2023/11/10 01:39:48;;;;;;;8.73;7.33;;;;;;;7.79;74.19;95009.41;5007117;28;20202;-69
2023/11/10 01:42:15;;;;;;;8.57;7.33;;;;;;;7.59;74.97;95005.31;5007042;28;20183;-69
2023/11/10 01:44:41;;;;;;;8.77;6.47;;;;;;;7.75;74.35;95002.72;5007085;28;20178;-69
2023/11/10 01:47:09;;;;;;;7.73;6.53;;;;;;;7.96;73.05;95000.66;5006988;28;21128;-68
2023/11/10 01:49:35;;;;;;;6.43;5.83;;;;;;;7.64;74.58;94993.69;5007145;28;20219;-67
2023/11/10 01:52:02;;;;;;;6.30;5.70;;;;;;;7.69;74.78;94989.97;5006835;28;20518;-70
2023/11/10 01:54:34;;;;;;;7.03;5.43;;;;;;;7.62;75.95;94992.06;5006601;28;20172;-70
2023/11/10 01:57:00;;;;;;;9.43;6.70;;;;;;;7.77;74.83;94979.94;5006602;28;21289;-68
2023/11/10 01:59:26;;;;;;;8.83;6.03;;;;;;;7.85;74.87;94970.75;5006934;28;20518;-69
2023/11/10 02:01:51;;;;;;;8.40;5.93;;;;;;;7.81;74.71;94968.41;5006563;28;20497;-69
2023/11/10 02:04:17;;;;;;;8.23;7.20;;;;;;;7.92;74.09;94976.47;5007046;28;20443;-68
2023/11/10 02:06:48;;;;;;;8.47;6.60;;;;;;;7.91;74.18;94968.72;5013296;28;20171;-70
2023/11/10 02:09:14;;;;;;;8.10;7.33;;;;;;;7.73;75.62;94961.00;5006549;28;20202;-71
2023/11/10 02:11:40;;;;;;;6.63;6.00;;;;;;;7.88;74.47;94974.13;5006654;28;20752;-68
2023/11/10 02:14:07;;;;;;;8.23;6.33;;;;;;;7.89;73.98;94965.34;5006690;28;20184;-69
2023/11/10 02:16:33;;;;;;;7.57;5.57;;;;;;;7.91;74.31;94966.09;5006561;28;20598;-69
2023/11/10 02:18:59;;;;;;;7.00;6.40;;;;;;;7.93;73.72;94962.47;5010489;28;20433;-70
2023/11/10 02:21:24;;;;;;;6.70;5.50;;;;;;;7.95;74.06;94950.19;5010705;28;20196;-69
2023/11/10 02:23:53;;;;;;;9.00;6.40;;;;;;;7.95;74.35;94963.25;5010311;28;20203;-69
2023/11/10 02:26:19;;;;;;;6.20;5.43;;;;;;;7.84;73.72;94958.63;5010100;28;20246;-70
2023/11/10 02:28:44;;;;;;;7.47;6.33;;;;;;;7.93;72.77;94957.25;5010309;28;20439;-70
2023/11/10 02:31:09;;;;;;;7.87;5.80;;;;;;;7.95;72.27;94955.41;5010430;28;20176;-67
2023/11/10 02:33:35;;;;;;;6.40;5.80;;;;;;;7.92;72.75;94932.06;5023262;28;20254;-68
2023/11/10 02:36:01;;;;;;;6.27;4.80;;;;;;;7.94;72.47;94942.44;5029460;28;20247;-70
2023/11/10 02:38:27;;;;;;;11.57;6.13;;;;;;;7.88;73.54;94938.41;5029626;28;20458;-68
2023/11/10 02:40:52;;;;;;;9.47;5.90;;;;;;;8.01;73.46;94939.38;5029428;28;20215;-69
2023/11/10 02:43:18;;;;;;;10.10;5.80;;;;;;;7.93;73.34;94935.53;5029490;28;20195;-70
2023/11/10 02:45:43;;;;;;;6.37;5.50;;;;;;;8.00;73.47;94932.47;5029158;28;20258;-70
2023/11/10 02:48:09;;;;;;;6.40;5.33;;;;;;;7.99;73.92;94932.56;5029711;28;20837;-70
2023/11/10 02:50:35;;;;;;;6.57;5.57;;;;;;;8.04;72.90;94941.81;5029400;28;20192;-69
2023/11/10 02:53:00;;;;;;;8.23;6.60;;;;;;;7.98;73.60;94943.94;5029274;28;20535;-71
2023/11/10 02:55:26;;;;;;;7.40;6.10;;;;;;;7.96;72.87;94948.41;5029092;28;20176;-70
2023/11/10 02:57:51;;;;;;;8.57;6.90;;;;;;;7.95;72.92;94931.91;5029687;28;20302;-68
2023/11/10 03:00:17;;;;;;;6.20;5.60;;;;;;;7.96;73.70;94930.13;5029484;28;20588;-68
2023/11/10 03:02:42;;;;;;;7.23;6.13;;;;;;;7.91;73.24;94938.22;5029779;28;20182;-69
2023/11/10 03:05:08;;;;;;;12.97;6.47;;;;;;;7.88;73.80;94935.78;5029088;28;20178;-69
2023/11/10 03:07:33;;;;;;;8.60;6.60;;;;;;;8.04;73.46;94922.69;5029992;28;20243;-71
2023/11/10 03:09:58;;;;;;;8.53;6.70;;;;;;;8.00;72.92;94926.41;5029990;28;20772;-69
2023/11/10 03:12:24;;;;;;;8.43;6.13;;;;;;;8.07;72.48;94920.72;5035346;28;20175;-68
2023/11/10 03:14:50;;;;;;;7.80;7.10;;;;;;;7.99;73.03;94928.19;5038657;28;20201;-70
2023/11/10 03:17:16;;;;;;;8.00;6.63;;;;;;;7.91;72.62;94913.88;5038647;28;20215;-70
2023/11/10 03:19:42;;;;;;;7.50;6.30;;;;;;;7.92;72.71;94911.19;5038208;28;20792;-68
2023/11/10 03:22:10;;;;;;;6.60;5.90;;;;;;;7.97;72.54;94906.53;5035602;28;20422;-70
2023/11/10 03:24:37;;;;;;;6.63;5.47;;;;;;;7.96;72.57;94909.22;5029838;28;20631;-70
2023/11/10 03:27:02;;;;;;;7.63;6.80;;;;;;;7.96;72.04;94909.22;5029266;28;20411;-71
2023/11/10 03:29:27;;;;;;;7.73;6.80;;;;;;;7.88;73.20;94903.59;5028754;28;20438;-69
2023/11/10 03:31:53;;;;;;;14.60;7.60;;;;;;;7.97;72.20;94900.47;5029037;28;20263;-69
2023/11/10 03:34:18;;;;;;;7.43;6.73;;;;;;;7.90;72.72;94907.81;5009938;28;20197;-69
2023/11/10 03:36:44;;;;;;;7.20;6.50;;;;;;;7.96;72.22;94915.31;5008419;28;20246;-69
2023/11/10 03:39:09;;;;;;;7.90;7.10;;;;;;;7.99;72.32;94928.19;5008795;28;20203;-69
2023/11/10 03:41:37;;;;;;;8.80;6.80;;;;;;;8.03;71.97;94931.44;5008997;28;20187;-70
2023/11/10 03:44:03;;;;;;;10.53;6.90;;;;;;;7.98;72.87;94918.66;5009174;28;20267;-70
2023/11/10 03:46:29;;;;;;;9.07;6.60;;;;;;;7.94;72.78;94914.56;5008737;28;20423;-70
2023/11/10 03:48:54;;;;;;;8.10;7.30;;;;;;;7.91;72.59;94917.31;5008829;28;20442;-69
2023/11/10 03:51:19;;;;;;;7.60;6.60;;;;;;;7.83;73.59;94922.16;5009254;28;20264;-67
2023/11/10 03:53:45;;;;;;;10.50;7.53;;;;;;;7.87;73.15;94904.56;5009302;28;20253;-70
2023/11/10 03:56:10;;;;;;;8.20;6.50;;;;;;;7.94;72.99;94911.94;5017836;28;20202;-67
2023/11/10 03:58:36;;;;;;;9.40;7.87;;;;;;;7.80;73.48;94902.28;5021776;28;20199;-68
2023/11/10 04:01:02;;;;;;;8.40;7.10;;;;;;;7.84;73.76;94906.41;5020940;28;20232;-70
2023/11/10 04:03:27;;;;;;;7.93;7.00;;;;;;;7.83;73.92;94909.94;5016233;28;20175;-71
2023/11/10 04:05:53;;;;;;;8.40;7.23;;;;;;;7.73;74.82;94918.38;5009203;28;20169;-70
2023/11/10 04:08:18;;;;;;;8.00;7.20;;;;;;;7.80;75.01;94907.50;5008809;28;20165;-69
2023/11/10 04:10:44;;;;;;;9.90;8.90;;;;;;;7.79;74.34;94897.13;5008688;28;21238;-69
2023/11/10 04:13:09;;;;;;;9.00;7.23;;;;;;;7.75;74.61;94909.53;5008579;28;20175;-70
2023/11/10 04:15:35;;;;;;;10.30;7.10;;;;;;;7.69;75.07;94914.25;5008131;28;20571;-68
2023/11/10 04:18:01;;;;;;;10.30;7.53;;;;;;;7.72;74.64;94906.25;5008206;28;20583;-70
2023/11/10 04:20:26;;;;;;;9.83;7.40;;;;;;;7.66;75.30;94902.22;5008038;28;20192;-69
2023/11/10 04:22:51;;;;;;;9.13;7.90;;;;;;;7.72;75.46;94914.91;5008200;28;20180;-68
2023/11/10 04:25:17;;;;;;;8.77;7.30;;;;;;;7.77;75.43;94915.53;5007831;28;20172;-70
2023/11/10 04:27:43;;;;;;;9.10;7.70;;;;;;;7.78;75.64;94926.78;5008060;28;20175;-71
2023/11/10 04:30:09;;;;;;;12.47;7.60;;;;;;;7.78;74.99;94932.03;5008360;28;20271;-70
2023/11/10 04:32:36;;;;;;;11.23;8.53;;;;;;;7.74;76.16;94931.34;5013626;28;20262;-68
2023/11/10 04:35:02;;;;;;;12.13;7.70;;;;;;;7.70;76.28;94936.81;5027374;28;20421;-69
2023/11/10 04:37:28;;;;;;;9.80;8.77;;;;;;;7.76;76.32;94937.31;5027612;28;20469;-70
2023/11/10 04:39:53;;;;;;;8.70;7.43;;;;;;;7.74;75.53;94933.94;5027022;28;20426;-70
2023/11/10 04:42:19;;;;;;;12.60;7.40;;;;;;;7.84;75.79;94929.91;5027728;28;20772;-70
2023/11/10 04:44:45;;;;;;;8.93;8.10;;;;;;;7.81;76.21;94931.84;5027820;28;20565;-70
2023/11/10 04:47:12;;;;;;;8.67;6.77;;;;;;;7.92;76.24;94941.69;5028378;28;20418;-68
2023/11/10 04:49:38;;;;;;;8.23;7.07;;;;;;;7.91;75.60;94938.22;5029093;28;20207;-70
2023/11/10 04:52:04;;;;;;;7.60;6.80;;;;;;;7.83;76.71;94946.50;5029005;28;20737;-70
2023/11/10 04:54:30;;;;;;;6.20;5.60;;;;;;;7.83;76.64;94941.25;5032809;28;20195;-69
2023/11/10 04:56:55;;;;;;;5.53;5.03;;;;;;;7.88;76.55;94948.84;5027227;28;20631;-69
2023/11/10 04:59:21;;;;;;;9.20;4.97;;;;;;;7.95;76.27;94938.91;5026966;28;20191;-69
2023/11/10 05:01:46;;;;;;;4.27;3.87;;;;;;;8.05;77.11;94930.47;5027279;28;20179;-69
2023/11/10 05:04:13;;;;;;;7.53;3.87;;;;;;;8.07;76.81;94927.72;5026885;28;20184;-69
2023/11/10 05:06:39;;;;;;;5.57;4.30;;;;;;;8.00;77.59;94932.47;5026631;28;20182;-69
2023/11/10 05:09:06;;;;;;;3.00;2.70;;;;;;;8.02;76.86;94924.56;5027142;28;20446;-70
2023/11/10 05:11:33;;;;;;;3.10;2.33;;;;;;;7.99;76.72;94914.28;5027326;28;20556;-70
2023/11/10 05:13:59;;;;;;;3.70;2.60;;;;;;;8.03;76.86;94897.47;5026902;28;20430;-69
2023/11/10 05:16:24;;;;;;;2.60;2.23;;;;;;;8.06;76.60;94892.94;5026652;28;20421;-70
2023/11/10 05:18:50;;;;;;;4.60;1.50;;;;;;;8.03;76.80;94910.56;5026572;28;20254;-68
2023/11/10 05:21:16;;;;;;;3.30;1.97;;;;;;;8.04;76.06;94900.03;5026733;28;20186;-68
2023/11/10 05:23:42;;;;;;;4.43;1.50;;;;;;;8.05;76.64;94904.34;5026599;28;20184;-68
2023/11/10 05:26:09;;;;;;;2.00;1.60;;;;;;;8.04;76.64;94896.56;5026392;28;20425;-70
2023/11/10 05:28:34;;;;;;;2.30;1.50;;;;;;;8.06;75.80;94898.16;5026711;28;20175;-70
2023/11/10 05:31:00;;;;;;;4.67;2.90;;;;;;;8.09;75.66;94904.16;5026754;28;20425;-70
2023/11/10 05:33:26;;;;;;;2.73;1.50;;;;;;;8.00;76.17;94903.72;5015067;28;20497;-70
2023/11/10 05:35:51;;;;;;;2.23;1.50;;;;;;;8.03;76.16;94903.56;5006744;28;20248;-70
2023/11/10 05:38:16;;;;;;;3.00;1.50;;;;;;;8.07;75.93;94906.84;5006973;28;20938;-68
2023/11/10 05:40:42;;;;;;;1.90;1.40;;;;;;;8.07;75.62;94917.28;5007347;28;20207;-69
2023/11/10 05:43:08;;;;;;;2.33;1.60;;;;;;;8.16;75.72;94915.91;5007694;28;20180;-69
2023/11/10 05:45:35;;;;;;;2.83;1.30;;;;;;;8.10;75.42;94921.50;5007063;28;20176;-70
2023/11/10 05:48:00;;;;;;;1.90;1.47;;;;;;;8.06;75.59;94931.28;5007933;28;20411;-69
2023/11/10 05:50:26;;;;;;;1.40;1.00;;;;;;;8.12;74.86;94924.88;5006941;28;20442;-69
2023/11/10 05:52:51;;;;;;;1.37;1.20;;;;;;;8.02;75.69;94930.59;5025869;28;20224;-70
2023/11/10 05:55:16;;;;;;;2.20;1.00;;;;;;;8.03;76.01;94926.22;5010764;28;20187;-68
2023/11/10 05:57:42;;;;;;;1.50;1.20;;;;;;;8.02;75.94;94929.78;5010685;28;20200;-70
2023/11/10 06:00:08;;;;;;;3.73;1.50;;;;;;;7.96;75.57;94945.78;5010468;28;20210;-70
2023/11/10 06:02:34;;;;;;;4.07;1.50;;;;;;;8.06;75.11;94936.50;5010496;28;20168;-71
2023/11/10 06:05:00;;;;;;;6.20;1.40;;;;;;;8.00;75.56;94937.69;5010603;28;21162;-70
2023/11/10 06:07:26;;;;;;;9.33;1.27;;;;;;;8.04;75.34;94938.38;5009564;28;20410;-69
2023/11/10 06:09:51;;;;;;;2.80;1.13;;;;;;;8.06;75.92;94947.81;5010497;28;20442;-70
2023/11/10 06:12:17;;;;;;;4.60;2.07;;;;;;;8.05;75.92;94945.25;5010752;28;20208;-69
2023/11/10 06:14:42;;;;;;;2.60;1.63;;;;;;;8.05;76.02;94955.72;5012840;28;20203;-68
2023/11/10 06:17:08;;;;;;;2.33;1.20;;;;;;;8.16;75.49;94955.94;5019165;28;20200;-71
2023/11/10 06:19:33;;;;;;;2.80;1.30;;;;;;;8.03;75.72;94955.81;5029142;28;20218;-71
2023/11/10 06:21:59;;;;;;;2.00;1.30;;;;;;;8.01;75.84;94955.06;5024453;28;20211;-72
2023/11/10 06:24:24;;;;;;;2.57;0.83;;;;;;;8.04;74.74;94959.28;5028756;28;20183;-71
2023/11/10 06:26:50;;;;;;;5.57;1.33;;;;;;;8.04;75.01;94957.50;5023401;28;20228;-69
2023/11/10 06:29:16;;;;;;;2.03;1.07;;;;;;;8.09;74.58;94954.63;5029789;28;20294;-66
2023/11/10 06:31:41;;;;;;;2.53;1.07;;;;;;;8.11;75.01;94942.31;5025626;28;20175;-69
2023/11/10 06:34:07;;;;;;;1.30;0.90;;;;;;;8.06;74.87;94939.13;5029130;28;20479;-67
2023/11/10 06:36:32;;;;;;;1.97;1.23;;;;;;;8.04;74.97;94957.50;5028096;28;20211;-69
2023/11/10 06:38:58;;;;;;;2.03;1.00;;;;;;;8.01;75.39;94959.47;5029819;28;20258;-70
2023/11/10 06:41:24;;;;;;;1.40;1.17;;;;;;;8.00;74.62;94971.66;5029784;28;20176;-70
2023/11/10 06:43:49;;;;;;;1.90;1.10;;;;;;;7.98;74.75;94954.38;5029605;28;20179;-69
2023/11/10 06:46:26;;;;;;;1.23;1.00;;;;;;;8.03;75.41;94971.50;5037839;28;20236;-69
2023/11/10 06:48:52;;;;;;;2.60;1.20;;;;;;;8.02;75.15;94972.41;5023299;28;20216;-69
2023/11/10 06:51:21;;;;;;;2.33;1.40;;;;;;;7.99;75.48;94969.16;5022098;28;20430;-69
2023/11/10 06:53:46;;;;;;;1.73;1.00;;;;;;;8.02;74.39;94971.56;5021157;28;20179;-70
2023/11/10 06:56:11;;;;;;;2.80;1.30;;;;;;;7.99;75.09;94983.03;5032290;28;20740;-68
2023/11/10 06:58:39;;;;;;;4.50;1.50;;;;;;;8.04;75.28;94982.78;5022315;28;20266;-69
2023/11/10 07:01:06;;;;;;;1.40;1.10;;;;;;;7.97;74.99;94982.28;5030959;28;20188;-68
2023/11/10 07:03:31;;;;;;;6.00;1.47;;;;;;;7.97;75.34;94989.28;5029402;28;20777;-70
2023/11/10 07:05:56;;;;;;;2.30;1.87;;;;;;;7.98;75.80;94985.72;5030147;28;20444;-70
2023/11/10 07:08:22;;;;;;;3.30;1.27;;;;;;;8.07;74.94;94985.22;5030238;28;20680;-71
2023/11/10 07:10:53;;;;;;;2.83;1.43;;;;;;;7.97;74.72;94989.28;5029548;28;20607;-68
2023/11/10 07:13:18;;;;;;;2.40;1.13;;;;;;;8.00;74.54;94987.31;5029508;28;20270;-70
2023/11/10 07:15:45;;;;;;;6.50;1.40;;;;;;;8.04;75.05;94988.84;5040483;28;20512;-69
2023/11/10 07:18:11;;;;;;;9.50;1.90;;;;;;;8.03;74.54;94995.00;5041272;28;20671;-69
2023/11/10 07:20:37;;;;;;;7.80;2.07;;;;;;;8.04;74.73;94996.69;5026071;28;20470;-69
2023/11/10 07:23:03;;;;;;;5.17;1.70;;;;;;;8.00;74.97;94999.56;5029782;28;20940;-69
2023/11/10 07:25:28;;;;;;;3.70;1.73;;;;;;;7.98;75.22;95001.41;5029856;28;20407;-68
2023/11/10 07:27:55;;;;;;;3.40;1.57;;;;;;;7.96;75.72;95019.78;5028519;28;20168;-69
2023/11/10 07:30:21;;;;;;;4.70;1.90;;;;;;;8.04;74.98;95016.75;5027690;28;20542;-70
2023/11/10 07:32:47;;;;;;;8.50;2.77;;;;;;;8.02;75.43;95018.59;5021804;28;20446;-70
2023/11/10 07:35:13;;;;;;;1.40;1.07;;;;;;;8.03;75.53;95009.81;5029581;28;20425;-70
2023/11/10 07:37:44;;;;;;;2.17;1.40;;;;;;;8.06;74.77;95014.91;5033811;28;20297;-70
2023/11/10 07:40:14;;;;;;;3.80;1.50;;;;;;;7.93;75.68;95016.50;5025789;28;20490;-70
2023/11/10 07:42:42;;;;;;;6.03;1.53;;;;;;;9.39;91.40;95006.22;5029455;28;20418;-71
2023/11/10 07:45:14;;;;;;;8.43;1.57;;;;;;;10.74;80.25;95002.00;5024332;28;20437;-69
2023/11/10 07:47:44;;;;;;;6.90;1.50;;;;;;;11.79;77.96;94998.28;5028925;28;20456;-70
2023/11/10 07:50:10;;;;;;;1.90;1.10;;;;;;;12.16;72.12;95006.16;5026623;28;20465;-70
2023/11/10 07:52:37;;;;;;;74.07;7.27;;;;;;;10.55;65.61;94999.75;5028679;28;20418;-69
2023/11/10 07:55:04;;;;;;;19.27;3.73;;;;;;;9.40;69.71;94999.19;5028282;28;20217;-70
2023/11/10 07:57:29;;;;;;;2.87;0.87;;;;;;;8.77;71.62;95009.09;5028786;28;20454;-69
2023/11/10 07:59:55;;;;;;;2.13;1.00;;;;;;;8.55;72.46;95006.91;5024519;28;20450;-70
2023/11/10 08:02:20;;;;;;;2.60;0.90;;;;;;;8.54;72.84;95007.81;5025666;28;20207;-70
2023/11/10 08:04:46;;;;;;;1.50;1.00;;;;;;;8.44;73.63;95010.13;5016433;28;20183;-69
2023/11/10 08:07:12;;;;;;;2.50;1.10;;;;;;;8.43;74.20;95004.97;5028461;28;20179;-69
2023/11/10 08:09:37;;;;;;;3.30;1.30;;;;;;;8.42;73.29;95008.53;5028445;28;20430;-70
2023/11/10 08:12:03;;;;;;;1.97;1.20;;;;;;;8.46;73.70;95010.03;5028491;28;20670;-69
2023/11/10 08:14:29;;;;;;;2.07;1.23;;;;;;;8.41;73.29;95012.91;5028071;28;20285;-69
2023/11/10 08:16:54;;;;;;;2.70;1.00;;;;;;;8.44;73.26;95009.28;5020217;28;20247;-70
2023/11/10 08:19:20;;;;;;;3.07;1.00;;;;;;;8.45;73.46;95006.56;5026266;28;20203;-71
2023/11/10 08:21:45;;;;;;;1.30;0.90;;;;;;;8.56;73.57;94999.88;5028521;28;20171;-67
2023/11/10 08:24:11;;;;;;;2.70;1.10;;;;;;;8.58;73.55;94998.03;5028162;28;20576;-70
2023/11/10 08:26:38;;;;;;;1.37;0.90;;;;;;;8.54;72.89;95005.19;5028247;28;20605;-69
2023/11/10 08:29:04;;;;;;;1.23;0.80;;;;;;;8.51;72.90;95008.00;5028584;28;20191;-68
2023/11/10 08:31:29;;;;;;;1.50;0.87;;;;;;;8.59;73.15;95010.16;5024340;28;20451;-64
2023/11/10 08:33:55;;;;;;;3.63;0.90;;;;;;;8.58;73.06;95003.25;5029144;28;20263;-69
2023/11/10 08:36:22;;;;;;;2.10;0.90;;;;;;;8.62;71.70;94996.91;5027730;28;20167;-72
2023/11/10 08:38:49;;;;;;;0.90;0.70;;;;;;;8.62;71.79;95004.75;5027884;28;20206;-70
2023/11/10 08:41:14;;;;;;;6.33;1.00;;;;;;;8.53;72.72;94998.31;5029263;28;20445;-69
2023/11/10 08:43:41;;;;;;;1.63;0.90;;;;;;;8.97;71.14;95001.81;5022988;28;20442;-67
2023/11/10 08:46:07;;;;;;;1.10;0.80;;;;;;;9.07;70.78;94993.34;5023188;28;20202;-70
2023/11/10 08:48:33;;;;;;;1.10;0.70;;;;;;;8.97;70.28;94994.81;5027607;28;20418;-70
2023/11/10 08:50:58;;;;;;;3.20;0.80;;;;;;;8.91;70.53;94992.56;5027998;28;20438;-70
2023/11/10 08:53:24;;;;;;;0.90;0.60;;;;;;;8.96;70.35;95000.97;5027863;28;20175;-71
2023/11/10 08:55:49;;;;;;;3.73;1.13;;;;;;;8.94;71.26;94989.78;5027805;28;20171;-69
2023/11/10 08:58:17;;;;;;;4.07;1.27;;;;;;;8.87;71.55;94991.06;5025772;28;20208;-70
2023/11/10 09:00:43;;;;;;;2.97;1.00;;;;;;;8.77;71.19;94995.19;5024242;28;20210;-70
2023/11/10 09:03:09;;;;;;;2.10;1.00;;;;;;;9.04;70.52;95005.75;5027384;28;20418;-70
2023/11/10 09:05:34;;;;;;;10.67;1.93;;;;;;;8.94;70.55;95000.22;5027239;28;20476;-68
2023/11/10 09:08:00;;;;;;;2.90;1.20;;;;;;;8.83;71.18;94997.41;5017378;28;20186;-67
2023/11/10 09:10:25;;;;;;;5.10;1.00;;;;;;;8.81;71.17;95004.50;5025128;28;20565;-69
2023/11/10 09:12:51;;;;;;;4.50;1.57;;;;;;;8.77;71.97;95003.84;5027963;28;20183;-70
2023/11/10 09:15:16;;;;;;;4.60;1.67;;;;;;;8.72;71.71;95003.28;5018953;28;20196;-67
2023/11/10 09:17:45;;;;;;;4.07;1.07;;;;;;;8.81;71.42;95001.88;5022525;28;20249;-68
2023/11/10 09:20:13;;;;;;;13.00;2.53;;;;;;;8.76;71.58;95009.16;5028450;28;20574;-68
2023/11/10 09:22:38;;;;;;;4.00;1.33;;;;;;;8.82;72.03;95008.81;5027775;28;20483;-68
2023/11/10 09:25:05;;;;;;;3.20;1.03;;;;;;;8.79;71.29;95006.38;5027682;28;21214;-70
2023/11/10 09:27:31;;;;;;;2.10;1.30;;;;;;;9.06;71.35;95002.09;5028446;28;20175;-70
2023/11/10 09:29:57;;;;;;;3.40;1.30;;;;;;;9.19;70.02;94999.59;5028048;28;20466;-68
2023/11/10 09:32:22;;;;;;;2.70;1.37;;;;;;;9.11;70.57;95002.66;5018722;28;20462;-70
2023/11/10 09:34:48;;;;;;;1.60;1.20;;;;;;;9.27;70.35;94992.09;5025552;28;20171;-70
2023/11/10 09:37:14;;;;;;;2.23;1.30;;;;;;;9.11;70.04;95000.03;5015949;28;20211;-69
2023/11/10 09:39:41;;;;;;;5.63;1.37;;;;;;;9.24;69.30;95001.94;5029015;28;20203;-70
2023/11/10 09:42:10;;;;;;;2.40;1.03;;;;;;;9.25;69.90;95001.81;5027351;28;20430;-70
2023/11/10 09:44:42;;;;;;;1.73;1.10;;;;;;;9.11;70.19;95001.81;5030878;28;20797;-70
2023/11/10 09:47:08;;;;;;;2.70;0.93;;;;;;;9.14;69.38;95004.25;5029289;28;20410;-70
2023/11/10 09:49:35;;;;;;;9.27;1.20;;;;;;;9.00;69.67;95002.50;5017921;28;20466;-70
2023/11/10 09:52:02;;;;;;;2.53;1.03;;;;;;;9.10;69.65;95006.22;5027067;28;20414;-69
2023/11/10 09:54:31;;;;;;;2.30;1.13;;;;;;;9.24;68.19;95001.94;5024706;28;20475;-70
2023/11/10 09:56:57;;;;;;;9.53;2.37;;;;;;;9.27;69.34;95013.06;5026023;28;20462;-69
2023/11/10 09:59:27;;;;;;;8.50;1.17;;;;;;;9.39;68.50;95006.22;5026453;28;20434;-71
2023/11/10 10:01:53;;;;;;;5.53;1.20;;;;;;;9.49;67.95;95009.94;5026676;28;20418;-70
2023/11/10 10:04:19;;;;;;;7.03;1.60;;;;;;;9.73;67.66;95004.13;5016296;28;20438;-71
2023/11/10 10:06:50;;;;;;;4.50;1.10;;;;;;;10.00;66.75;95008.56;5027957;28;20414;-70
2023/11/10 10:09:16;;;;;;;1.50;0.80;;;;;;;10.34;64.87;94996.75;5007887;28;20211;-70
2023/11/10 10:11:42;;;;;;;1.77;1.20;;;;;;;10.47;65.02;94997.66;5020270;28;20492;-65
2023/11/10 10:14:08;;;;;;;2.30;1.50;;;;;;;10.44;65.18;94995.22;5016814;28;20454;-68
2023/11/10 10:16:33;;;;;;;8.60;1.53;;;;;;;10.21;65.09;95001.09;5019010;28;20470;-69
2023/11/10 10:19:00;;;;;;;14.23;2.70;;;;;;;10.02;65.70;94998.84;5021330;28;20197;-67
2023/11/10 10:21:25;;;;;;;22.80;3.33;;;;;;;9.98;65.83;94994.72;5030645;28;20712;-68
2023/11/10 10:23:52;;;;;;;15.57;2.60;;;;;;;9.94;66.22;95000.16;5025812;28;20402;-69
2023/11/10 10:26:17;;;;;;;17.67;2.70;;;;;;;9.92;66.11;94986.31;5026090;28;20180;-68
2023/11/10 10:28:46;;;;;;;9.30;1.70;;;;;;;9.93;65.78;94992.38;5025641;28;20414;-69
2023/11/10 10:31:14;;;;;;;5.27;2.70;;;;;;;10.00;66.08;94987.59;5018864;28;20207;-68
2023/11/10 10:33:39;;;;;;;3.77;1.70;;;;;;;10.03;65.73;94979.53;5025368;28;20421;-69
2023/11/10 10:36:06;;;;;;;5.60;1.53;;;;;;;9.99;66.37;94980.66;5025731;28;20429;-69
2023/11/10 10:38:32;;;;;;;3.20;1.60;;;;;;;10.18;65.70;94983.75;5026948;28;20220;-70
2023/11/10 10:40:59;;;;;;;3.40;1.30;;;;;;;10.18;65.24;94982.00;5029537;28;20484;-70
2023/11/10 10:43:27;;;;;;;2.53;1.50;;;;;;;10.16;65.44;94983.06;5015707;28;20435;-68
2023/11/10 10:45:53;;;;;;;4.70;1.40;;;;;;;10.07;65.45;94979.25;5028341;28;20425;-69
2023/11/10 10:48:18;;;;;;;3.40;1.00;;;;;;;10.00;65.18;94977.94;5026805;28;20515;-68
2023/11/10 10:50:45;;;;;;;4.37;1.20;;;;;;;9.90;65.29;94969.84;5029648;28;20454;-71
2023/11/10 10:53:13;;;;;;;8.40;1.50;;;;;;;9.80;66.35;94978.38;5029775;28;20182;-70
2023/11/10 10:55:40;;;;;;;2.70;1.00;;;;;;;9.88;66.00;94970.88;5029126;28;20410;-70
2023/11/10 10:58:08;;;;;;;8.20;1.57;;;;;;;9.85;66.01;94968.44;5029367;28;20458;-70
2023/11/10 11:00:34;;;;;;;3.47;1.30;;;;;;;9.93;65.70;94967.03;5026022;28;20983;-70
2023/11/10 11:03:09;;;;;;;12.07;2.63;;;;;;;9.99;65.53;94965.78;5023359;28;20419;-69
2023/11/10 11:05:48;;;;;;;11.10;1.63;;;;;;;10.13;65.15;94963.13;5029064;28;20226;-71
2023/11/10 11:08:48;;;;;;;2.80;1.40;;;;;;;10.47;64.49;94960.09;5029562;28;20406;-70
2023/11/10 11:11:22;;;;;;;31.97;3.87;;;;;;;10.36;63.58;94952.94;5021966;28;20447;-70
2023/11/10 11:13:55;;;;;;;14.13;1.83;;;;;;;10.18;64.16;94953.19;5028641;28;20414;-70
2023/11/10 11:16:23;;;;;;;8.60;1.77;;;;;;;10.18;63.92;94952.31;5026290;28;20438;-70
2023/11/10 11:19:01;;;;;;;4.83;1.20;;;;;;;10.09;64.38;94952.94;5028802;28;20937;-70
2023/11/10 11:21:26;;;;;;;3.13;1.30;;;;;;;10.04;64.72;94955.84;5027272;28;20413;-68
2023/11/10 11:23:52;;;;;;;5.67;1.23;;;;;;;9.94;64.59;94953.00;5021212;28;20443;-70
2023/11/10 11:26:18;;;;;;;3.30;0.90;;;;;;;10.02;64.47;94946.41;5028304;28;20201;-69
2023/11/10 11:28:44;;;;;;;4.50;1.20;;;;;;;9.99;64.92;94936.09;5027120;28;20580;-69
2023/11/10 11:31:12;;;;;;;3.63;1.10;;;;;;;9.96;64.66;94935.38;5024250;28;20418;-68
2023/11/10 11:33:44;;;;;;;7.43;1.40;;;;;;;9.94;63.71;94933.78;5028143;28;20179;-67
2023/11/10 11:36:13;;;;;;;2.03;1.00;;;;;;;10.04;63.64;94927.03;5020504;28;21122;-68